Time;durP1;ratioP1;P1;durP2;ratioP2;P2;SDS_P1;SDS_P2;PMS_P1;PMS_P2;Temp;Humidity;BMP_temperature;BMP_pressure;BME280_temperature;BME280_humidity;BME280_pressure;Samples;Min_cycle;Max_cycle;Signal;HPM_P1;HPM_P2
2021/10/12 00:01:50;;;;;;;13.20;7.05;;;;;;;;;;5023251;28;20033;-87
2021/10/12 00:04:16;;;;;;;16.05;7.90;;;;;;;;;;5034442;28;20037;-82
2021/10/12 00:06:42;;;;;;;18.58;8.02;;;;;;;;;;5026992;28;20069;-86
2021/10/12 00:09:08;;;;;;;17.70;8.93;;;;;;;;;;5034868;28;20028;-88
2021/10/12 00:11:34;;;;;;;15.75;8.70;;;;;;;;;;5028272;28;20036;-87
2021/10/12 00:14:03;;;;;;;19.67;9.23;;;;;;;;;;5033752;28;20021;-90
2021/10/12 00:16:29;;;;;;;17.55;8.93;;;;;;;;;;5024041;28;20047;-89
2021/10/12 00:18:59;;;;;;;15.63;8.52;;;;;;;;;;5034120;28;20067;-88
2021/10/12 00:21:25;;;;;;;18.50;9.18;;;;;;;;;;5044035;28;20033;-87
2021/10/12 00:23:51;;;;;;;16.38;8.73;;;;;;;;;;5025720;28;20565;-87
2021/10/12 00:26:17;;;;;;;17.98;9.05;;;;;;;;;;5043032;28;20037;-86
2021/10/12 00:28:45;;;;;;;16.88;9.23;;;;;;;;;;5024480;28;20029;-87
2021/10/12 00:31:12;;;;;;;19.60;9.50;;;;;;;;;;5050223;28;20032;-85
2021/10/12 00:33:38;;;;;;;16.25;8.10;;;;;;;;;;5028399;28;20028;-81
2021/10/12 00:36:07;;;;;;;16.13;8.07;;;;;;;;;;5024350;28;20040;-86
2021/10/12 00:38:36;;;;;;;19.38;8.35;;;;;;;;;;5021272;28;20616;-85
2021/10/12 00:41:02;;;;;;;13.27;8.23;;;;;;;;;;5043459;28;20037;-89
2021/10/12 00:43:28;;;;;;;14.55;8.10;;;;;;;;;;5043888;28;20025;-87
2021/10/12 00:45:58;;;;;;;15.55;7.97;;;;;;;;;;5040755;28;20040;-87
2021/10/12 00:48:24;;;;;;;14.27;7.93;;;;;;;;;;5035577;28;20106;-84
2021/10/12 00:50:53;;;;;;;14.90;7.85;;;;;;;;;;5023848;28;20041;-87
2021/10/12 00:53:19;;;;;;;18.05;8.05;;;;;;;;;;5031649;28;20028;-85
2021/10/12 00:55:45;;;;;;;13.80;7.60;;;;;;;;;;5041260;28;20034;-88
2021/10/12 00:58:14;;;;;;;15.93;7.13;;;;;;;;;;5028647;28;20082;-86
2021/10/12 01:00:40;;;;;;;13.15;7.90;;;;;;;;;;5038428;28;20052;-85
2021/10/12 01:03:09;;;;;;;13.93;7.57;;;;;;;;;;5026996;28;20100;-84
2021/10/12 01:05:39;;;;;;;12.52;6.93;;;;;;;;;;5020406;28;20055;-85
2021/10/12 01:08:05;;;;;;;12.80;7.00;;;;;;;;;;5046897;28;20690;-85
2021/10/12 01:10:31;;;;;;;13.43;7.35;;;;;;;;;;5041876;28;20032;-88
2021/10/12 01:13:01;;;;;;;14.52;7.25;;;;;;;;;;5027313;28;20603;-89
2021/10/12 01:15:32;;;;;;;12.32;7.00;;;;;;;;;;5037566;28;20116;-88
2021/10/12 01:17:58;;;;;;;13.68;7.05;;;;;;;;;;5021975;28;20739;-88
2021/10/12 01:20:25;;;;;;;11.93;7.30;;;;;;;;;;5036150;28;20021;-87
2021/10/12 01:22:53;;;;;;;16.05;7.22;;;;;;;;;;5036819;28;20153;-89
2021/10/12 01:25:21;;;;;;;15.05;7.47;;;;;;;;;;5046588;28;20505;-88
2021/10/12 01:27:47;;;;;;;16.77;8.65;;;;;;;;;;5038743;28;20029;-88
2021/10/12 01:30:13;;;;;;;15.55;7.75;;;;;;;;;;5024833;28;20097;-90
2021/10/12 01:32:43;;;;;;;14.15;7.55;;;;;;;;;;5019125;28;20457;-87
2021/10/12 01:35:09;;;;;;;15.60;7.30;;;8.10;99.90;;;;;;5043626;28;20056;-87
2021/10/12 01:37:39;;;;;;;12.57;6.90;;;;;;;;;;5023436;28;20041;-89
2021/10/12 01:40:09;;;;;;;13.18;6.60;;;;;;;;;;5022119;28;20032;-90
2021/10/12 01:42:36;;;;;;;13.18;6.88;;;;;;;;;;5035397;28;20065;-86
2021/10/12 01:45:03;;;;;;;13.20;7.15;;;;;;;;;;5031039;28;20037;-84
2021/10/12 01:47:32;;;;;;;14.90;7.45;;;;;;;;;;5021292;28;20033;-87
2021/10/12 01:49:58;;;;;;;12.73;6.97;;;;;;;;;;5046948;28;20033;-84
2021/10/12 01:52:24;;;;;;;16.45;8.40;;;;;;;;;;5053432;28;20041;-89
2021/10/12 01:54:51;;;;;;;13.88;8.25;;;;;;;;;;5025960;28;20036;-89
2021/10/12 01:57:20;;;;;;;15.48;8.40;;;;;;;;;;5041817;28;20036;-89
2021/10/12 01:59:48;;;;;;;14.82;8.07;;;;;;;;;;5042027;28;20033;-88
2021/10/12 02:02:14;;;;;;;15.55;7.60;;;;;;;;;;5027434;28;20037;-88
2021/10/12 02:04:40;;;;;;;13.90;7.70;;;;;;;;;;5051456;28;20033;-88
2021/10/12 02:07:06;;;;;;;14.27;8.07;;;;;;;;;;5047184;28;20036;-89
2021/10/12 02:09:32;;;;;;;16.52;7.78;;;;;;;;;;5029052;28;20036;-89
2021/10/12 02:12:01;;;;;;;12.70;7.47;;;;;;;;;;5028798;28;20063;-87
2021/10/12 02:14:27;;;;;;;16.17;8.82;;;;;;;;;;5045107;28;20063;-87
2021/10/12 02:16:56;;;;;;;15.57;9.35;;;;;;;;;;5048144;28;20025;-87
2021/10/12 02:19:22;;;;;;;17.38;8.90;;;;;;;;;;5043338;28;20085;-87
2021/10/12 02:21:48;;;;;;;18.02;9.77;;;;;;;;;;5027031;28;20218;-88
2021/10/12 02:24:17;;;;;;;14.98;8.88;;;;;;;;;;5022003;28;20047;-87
2021/10/12 02:26:43;;;;;;;17.42;9.63;;;;;;;;;;5017496;28;20037;-87
2021/10/12 02:29:09;;;;;;;17.38;9.70;;;;;;;;;;5036684;28;20049;-88
2021/10/12 02:31:38;;;;;;;16.70;9.02;;;;;;;;;;5031114;28;20378;-89
2021/10/12 02:34:04;;;;;;;16.45;9.20;;;;;;;;;;5020742;28;20025;-88
2021/10/12 02:36:33;;;;;;;16.15;9.10;;;;;;;;;;5021188;28;20029;-87
2021/10/12 02:38:59;;;;;;;17.05;8.68;;;;;;;;;;5036519;28;20029;-86
2021/10/12 02:41:28;;;;;;;20.45;10.30;;;;;;;;;;5041490;28;20044;-88
2021/10/12 02:43:54;;;;;;;17.00;9.32;;;;;;;;;;5039572;28;20037;-89
2021/10/12 02:46:23;;;;;;;19.55;10.93;;;;;;;;;;5045823;28;20039;-86
2021/10/12 02:48:49;;;;;;;19.15;10.25;;;;;;;;;;5024212;28;21118;-88
2021/10/12 02:51:15;;;;;;;16.98;10.20;;;;;;;;;;5047248;28;20060;-86
2021/10/12 02:53:41;;;;;;;17.85;10.20;;;;;;;;;;5032281;28;20487;-86
2021/10/12 02:56:08;;;;;;;17.02;9.70;;;;;;;;;;5036073;28;20159;-84
2021/10/12 02:58:34;;;;;;;18.40;9.82;;;;;;;;;;5045712;28;20029;-84
2021/10/12 03:01:00;;;;;;;17.85;9.55;;;;;;;;;;5033563;28;20033;-87
2021/10/12 03:03:26;;;;;;;18.58;10.48;;;;;;;;;;5043740;28;20033;-87
2021/10/12 03:05:52;;;;;;;19.30;9.88;;;;;;;;;;5026387;28;20037;-84
2021/10/12 03:08:18;;;;;;;16.27;9.55;;;;;;;;;;5044644;28;20033;-88
2021/10/12 03:10:44;;;;;;;19.23;10.25;;;;;;;;;;5031946;28;20037;-86
2021/10/12 03:13:10;;;;;;;17.92;10.07;;;;;;;;;;5034815;28;20108;-88
2021/10/12 03:15:36;;;;;;;17.35;9.52;;;;;;;;;;5050582;28;20021;-88
2021/10/12 03:18:02;;;;;;;16.90;9.52;;;;;;;;;;5025036;28;20029;-86
2021/10/12 03:20:28;;;;;;;17.15;9.55;;;;;;;;;;5020954;28;20067;-87
2021/10/12 03:22:54;;;;;;;17.17;9.65;;;;;;;;;;5035058;28;20036;-86
2021/10/12 03:25:20;;;;;;;18.27;9.20;;;;;;;;;;5030770;28;20029;-89
2021/10/12 03:27:46;;;;;;;15.55;9.65;;;;;;;;;;5033116;28;20036;-87
2021/10/12 03:30:12;;;;;;;15.30;9.73;;;;;;;;;;5025823;28;20037;-83
2021/10/12 03:32:38;;;;;;;16.42;9.80;;;;;;;;;;5029397;28;20064;-85
2021/10/12 03:35:04;;;;;;;18.95;9.95;;;;;;;;;;5029294;28;20028;-87
2021/10/12 03:37:30;;;;;;;17.58;10.63;;;;;;;;;;5034412;28;20108;-84
2021/10/12 03:39:56;;;;;;;15.95;9.68;;;;;;;;;;5032732;28;22945;-85
2021/10/12 03:42:22;;;;;;;18.88;10.60;;;;;;;;;;5033105;28;20117;-87
2021/10/12 03:44:48;;;;;;;17.33;10.48;;;;;;;;;;5043861;28;20842;-87
2021/10/12 03:47:14;;;;;;;16.92;10.45;;;;;;;;;;5030305;28;21151;-87
2021/10/12 03:49:40;;;;;;;17.83;10.43;;;;;;;;;;5046124;28;20037;-86
2021/10/12 03:52:06;;;;;;;17.00;10.48;;;;;;;;;;5045623;28;20399;-88
2021/10/12 03:54:32;;;;;;;20.90;10.90;;;;;;;;;;5031046;28;20129;-87
2021/10/12 03:56:58;;;;;;;22.08;11.23;;;;;;;;;;5044520;28;20043;-87
2021/10/12 03:59:25;;;;;;;17.00;10.07;;;;;;;;;;5029483;28;20032;-86
2021/10/12 04:01:51;;;;;;;20.95;10.93;;;;;;;;;;5046365;28;20033;-89
2021/10/12 04:04:17;;;;;;;18.27;11.07;;;;;;;;;;5030907;28;20040;-88
2021/10/12 04:06:43;;;;;;;19.73;11.02;;;;;;;;;;5041796;28;20047;-86
2021/10/12 04:09:09;;;;;;;19.92;11.10;;;;;;;;;;5036991;28;20120;-89
2021/10/12 04:11:35;;;;;;;21.35;12.70;;;;;;;;;;5038835;28;20163;-87
2021/10/12 04:14:01;;;;;;;22.40;12.30;;;;;;;;;;5030301;28;20036;-86
2021/10/12 04:16:27;;;;;;;18.17;10.95;;;;;;;;;;5031554;28;20056;-87
2021/10/12 04:18:53;;;;;;;19.05;10.77;;;;;;;;;;5033462;28;20025;-86
2021/10/12 04:21:19;;;;;;;23.73;10.98;;;;;;;;;;5029287;28;20025;-89
2021/10/12 04:23:45;;;;;;;21.70;11.55;;;;;;;;;;5032539;28;20036;-88
2021/10/12 04:26:14;;;;;;;17.80;11.40;;;;;;;;;;5037427;28;20033;-87
2021/10/12 04:28:40;;;;;;;19.80;11.85;;;;;;;;;;5030807;28;20017;-86
2021/10/12 04:31:06;;;;;;;18.70;11.90;;;;;;;;;;5033935;28;20028;-87
2021/10/12 04:33:35;;;;;;;23.85;12.90;;;;;;;;;;5037327;28;20051;-89
2021/10/12 04:36:01;;;;;;;22.33;12.30;;;;;;;;;;5054123;28;20027;-88
2021/10/12 04:38:27;;;;;;;20.77;11.90;;;;;;;;;;5053236;28;20052;-88
2021/10/12 04:40:53;;;;;;;18.85;12.27;;;;;;;;;;5039712;28;20335;-86
2021/10/12 04:43:21;;;;;;;22.17;13.52;;;;;;;;;;5038382;28;20119;-85
2021/10/12 04:45:47;;;;;;;21.88;12.98;;;;;;;;;;5043403;28;20025;-88
2021/10/12 04:48:14;;;;;;;24.17;13.10;;;;;;;;;;5047339;28;20039;-86
2021/10/12 04:50:40;;;;;;;20.60;12.77;;;;;;;;;;5039772;28;20390;-87
2021/10/12 04:53:06;;;;;;;21.15;12.32;;;;;;;;;;5039236;28;20064;-85
2021/10/12 04:55:33;;;;;;;21.08;11.77;;;;;;;;;;5039900;28;20051;-83
2021/10/12 04:57:59;;;;;;;22.58;11.93;;;;;;;;;;5055165;28;20022;-89
2021/10/12 05:00:25;;;;;;;23.10;12.65;;;;;;;;;;5054422;28;20033;-85
2021/10/12 05:02:51;;;;;;;23.02;12.00;;;;;;;;;;5034006;28;20120;-87
2021/10/12 05:05:17;;;;;;;21.95;12.85;;;;;;;;;;5053590;28;20028;-85
2021/10/12 05:07:43;;;;;;;22.38;12.95;;;;;;;;;;5032806;28;20029;-87
2021/10/12 05:10:09;;;;;;;20.88;12.82;;;;;;;;;;5049298;28;20092;-87
2021/10/12 05:12:36;;;;;;;22.33;13.05;;;;;;;;;;5037960;28;20517;-87
2021/10/12 05:15:02;;;;;;;22.77;13.15;;;;;;;;;;5034158;28;20031;-87
2021/10/12 05:17:35;;;;;;;25.10;12.85;;;;;;;;;;5037169;28;20585;-85
2021/10/12 05:20:01;;;;;;;21.77;12.75;;;;;;;;;;5048061;28;20032;-88
2021/10/12 05:22:27;;;;;;;24.30;13.73;;;;;;;;;;5029656;28;20033;-89
2021/10/12 05:24:53;;;;;;;28.38;12.82;;;;;;;;;;5033698;28;20028;-86
2021/10/12 05:27:19;;;;;;;19.52;12.32;;;;;;;;;;5037350;28;20025;-89
2021/10/12 05:29:45;;;;;;;22.08;12.82;;;;;;;;;;5038059;28;20033;-86
2021/10/12 05:32:12;;;;;;;22.17;12.52;;;;;;;;;;5054584;28;20078;-86
2021/10/12 05:34:38;;;;;;;25.92;13.55;;;;;;;;;;5036881;28;20048;-88
2021/10/12 05:37:04;;;;;;;24.35;12.65;;;;;;;;;;5052887;28;20055;-85
2021/10/12 05:39:35;;;;;;;21.55;12.23;;;;;;;;;;5050038;28;20025;-88
2021/10/12 05:42:02;;;;;;;22.70;12.80;;;;;;;;;;5056199;28;20495;-86
2021/10/12 05:44:28;;;;;;;25.08;12.70;;;;;;;;;;5040885;28;20028;-87
2021/10/12 05:46:54;;;;;;;22.75;13.15;;;;;;;;;;5044452;28;20033;-87
2021/10/12 05:49:20;;;;;;;20.85;12.05;;;;;;;;;;5036250;28;20064;-86
2021/10/12 05:51:49;;;;;;;22.77;12.48;;;;;;;;;;5037574;28;20104;-86
2021/10/12 05:54:18;;;;;;;23.15;11.55;;;;;;;;;;5048882;28;20021;-84
2021/10/12 05:56:47;;;;;;;22.13;10.77;;;;;;;;;;5054205;28;20018;-85
2021/10/12 05:59:14;;;;;;;22.50;11.45;;;;;;;;;;5066030;28;20035;-90
2021/10/12 06:01:41;;;;;;;32.92;11.70;;;;;;;;;;5048257;28;20045;-87
2021/10/12 06:04:08;;;;;;;24.17;11.27;;;;;;;;;;5038092;28;20099;-84
2021/10/12 06:06:34;;;;;;;21.80;11.32;;;;;;;;;;5044458;28;20089;-88
2021/10/12 06:09:00;;;;;;;22.40;12.70;;;;;;;;;;5059389;28;20151;-85
2021/10/12 06:11:26;;;;;;;21.90;11.68;;;;;;;;;;5045728;28;20036;-88
2021/10/12 06:13:52;;;;;;;21.55;11.02;;;;;;;;;;5044510;28;20074;-87
2021/10/12 06:16:19;;;;;;;23.50;11.73;;;;;;;;;;5061749;28;20017;-85
2021/10/12 06:18:45;;;;;;;19.92;10.80;;;;;;;;;;5055717;28;20211;-89
2021/10/12 06:21:11;;;;;;;22.75;11.75;;;;;;;;;;5045837;28;20029;-86
2021/10/12 06:23:37;;;;;;;21.85;11.95;;;;;;;;;;5054973;28;20051;-86
2021/10/12 06:26:03;;;;;;;23.40;11.48;;;;;;;;;;5055062;28;20181;-85
2021/10/12 06:28:30;;;;;;;19.73;10.57;;;;;;;;;;5037313;28;20078;-83
2021/10/12 06:30:56;;;;;;;22.08;11.98;;;;;;;;;;5049984;28;20025;-83
2021/10/12 06:33:22;;;;;;;24.92;11.27;;;;;;;;;;5034846;28;20032;-84
2021/10/12 06:35:48;;;;;;;21.52;11.30;;;;;;;;;;5056175;28;20116;-85
2021/10/12 06:38:14;;;;;;;30.17;11.40;;;;;;;;;;5061092;28;20040;-86
2021/10/12 06:40:41;;;;;;;27.27;12.10;;;;;;;;;;5041307;28;20020;-88
2021/10/12 06:43:07;;;;;;;22.63;11.93;;;;;;;;;;5051834;28;20028;-87
2021/10/12 06:45:33;;;;;;;24.83;12.15;;;;;;;;;;5052168;28;20035;-85
2021/10/12 06:47:59;;;;;;;23.38;11.45;;;;;;;;;;5038004;28;20032;-81
2021/10/12 06:50:25;;;;;;;23.83;11.30;;;8.70;99.90;;;;;;5045579;28;20021;-87
2021/10/12 06:52:51;;;;;;;23.70;12.05;;;;;;;;;;5043077;28;20035;-87
2021/10/12 06:55:20;;;;;;;21.85;11.45;;;;;;;;;;5035413;28;20083;-85
2021/10/12 06:57:46;;;;;;;28.88;11.90;;;;;;;;;;5053717;28;20506;-84
2021/10/12 07:00:14;;;;;;;23.73;11.20;;;8.90;99.90;;;;;;5060900;28;20138;-86
2021/10/12 07:02:44;;;;;;;22.50;11.50;;;;;;;;;;5039919;28;20043;-89
2021/10/12 07:05:11;;;;;;;28.60;12.63;;;9.00;99.90;;;;;;5043856;28;20033;-86
2021/10/12 07:07:38;;;;;;;34.55;11.93;;;;;;;;;;5039769;28;20045;-85
2021/10/12 07:10:05;;;;;;;26.90;11.82;;;9.10;99.90;;;;;;5033289;28;20111;-86
2021/10/12 07:12:37;;;;;;;34.97;14.35;;;;;;;;;;5036496;28;20135;-85
2021/10/12 07:15:04;;;;;;;46.00;15.70;;;;;;;;;;5032564;28;20025;-86
2021/10/12 07:17:30;;;;;;;35.72;12.95;;;;;;;;;;5051324;28;20040;-83
2021/10/12 07:19:56;;;;;;;26.65;12.88;;;;;;;;;;5033677;28;20036;-87
2021/10/12 07:22:23;;;;;;;28.25;11.35;;;;;;;;;;5046285;28;20078;-84
2021/10/12 07:24:54;;;;;;;24.15;12.25;;;9.30;99.90;;;;;;5042533;28;20045;-86
2021/10/12 07:27:20;;;;;;;39.90;13.60;;;;;;;;;;5047802;28;20036;-83
2021/10/12 07:29:48;;;;;;;21.15;11.30;;;;;;;;;;5045596;28;20029;-85
2021/10/12 07:32:14;;;;;;;25.00;10.70;;;9.60;99.90;;;;;;5044169;28;20044;-87
2021/10/12 07:34:40;;;;;;;25.65;10.68;;;;;;;;;;5042696;28;20043;-85
2021/10/12 07:37:06;;;;;;;29.45;10.95;;;;;;;;;;5050307;28;20068;-84
2021/10/12 07:39:32;;;;;;;22.85;10.35;;;;;;;;;;5044825;28;20025;-86
2021/10/12 07:42:00;;;;;;;26.98;11.00;;;;;;;;;;5060244;28;20041;-85
2021/10/12 07:44:26;;;;;;;19.88;10.55;;;;;;;;;;5043447;28;20082;-86
2021/10/12 07:46:52;;;;;;;25.15;10.70;;;;;;;;;;5056708;28;20479;-86
2021/10/12 07:49:18;;;;;;;20.80;9.45;;;;;;;;;;5044703;28;20029;-85
2021/10/12 07:51:44;;;;;;;23.20;10.52;;;;;;;;;;5037727;28;20051;-87
2021/10/12 07:54:24;;;;;;;19.63;8.90;;;;;;;;;;5041595;28;20025;-84
2021/10/12 07:56:50;;;;;;;18.33;8.20;;;;;;;;;;5041556;28;20025;-84
2021/10/12 07:59:18;;;;;;;21.33;9.02;;;;;;;;;;5038523;28;20116;-83
2021/10/12 08:01:44;;;;;;;22.30;8.70;;;;;;;;;;5047446;28;20029;-84
2021/10/12 08:04:10;;;;;;;20.23;9.00;;;;;;;;;;5055039;28;20051;-86
2021/10/12 08:06:37;;;;;;;19.65;9.30;;;;;;;;;;5060718;28;20097;-85
2021/10/12 08:09:03;;;;;;;19.02;8.32;;;;;;;;;;5063038;28;20057;-83
2021/10/12 08:11:29;;;;;;;18.42;8.20;;;;;;;;;;5041461;28;20481;-83
2021/10/12 08:14:00;;;;;;;15.45;8.20;;;;;;;;;;5060354;28;20032;-85
2021/10/12 08:16:30;;;;;;;15.10;6.50;;;;;;;;;;5045048;28;20021;-85
2021/10/12 08:18:57;;;;;;;15.27;6.80;;;10.80;99.90;;;;;;5055407;28;20056;-84
2021/10/12 08:21:25;;;;;;;14.90;6.68;;;;;;;;;;5051807;28;20045;-84
2021/10/12 08:23:52;;;;;;;19.20;7.32;;;;;;;;;;5044644;28;20549;-86
2021/10/12 08:26:18;;;;;;;15.93;6.40;;;;;;;;;;5043471;28;20032;-85
2021/10/12 08:28:44;;;;;;;13.68;6.28;;;;;;;;;;5052183;28;20026;-85
2021/10/12 08:31:10;;;;;;;12.63;7.00;;;;;;;;;;5055619;28;20112;-82
2021/10/12 08:33:37;;;;;;;16.42;6.10;;;;;;;;;;5061703;28;20510;-82
2021/10/12 08:36:03;;;;;;;17.05;6.93;;;;;;;;;;5059807;28;20031;-83
2021/10/12 08:38:29;;;;;;;19.48;7.30;;;;;;;;;;5044292;28;20036;-85
2021/10/12 08:40:58;;;;;;;16.65;6.60;;;11.50;99.90;;;;;;5063496;28;20110;-84
2021/10/12 08:43:30;;;;;;;14.50;6.25;;;;;;;;;;5043452;28;20025;-87
2021/10/12 08:45:56;;;;;;;18.55;6.50;;;;;;;;;;5054639;28;20034;-84
2021/10/12 08:48:22;;;;;;;14.65;5.95;;;;;;;;;;5063898;28;20043;-84
2021/10/12 08:50:51;;;;;;;10.93;6.05;;;;;;;;;;5059512;28;20029;-83
2021/10/12 08:53:17;;;;;;;10.93;5.47;;;;;;;;;;5059964;28;20025;-85
2021/10/12 08:55:43;;;;;;;13.30;5.85;;;;;;;;;;5057414;28;20489;-83
2021/10/12 08:58:11;;;;;;;10.10;5.43;;;;;;;;;;5048247;28;20092;-86
2021/10/12 09:00:38;;;;;;;11.60;5.40;;;;;;;;;;5055461;28;20021;-85
2021/10/12 09:05:54;;;;;;;13.13;5.30;;;12.60;99.90;;;;;;5062869;28;20033;-83
2021/10/12 09:08:32;;;;;;;13.35;5.05;;;12.60;99.90;;;;;;5043943;28;20021;-85
2021/10/12 09:10:58;;;;;;;13.57;4.97;;;12.70;99.90;;;;;;5059654;28;20063;-85
2021/10/12 09:13:25;;;;;;;9.95;4.63;;;;;;;;;;5041752;28;20024;-84
2021/10/12 09:16:02;;;;;;;9.60;5.03;;;;;;;;;;5060266;28;20025;-84
2021/10/12 09:18:47;;;;;;;13.57;4.53;;;;;;;;;;5044355;28;20049;-87
2021/10/12 09:21:14;;;;;;;10.20;4.30;;;;;;;;;;5054583;28;20029;-84
2021/10/12 09:23:41;;;;;;;10.82;4.70;;;13.00;99.90;;;;;;5037301;28;20036;-83
2021/10/12 09:26:17;;;;;;;11.35;4.20;;;;;;;;;;5054714;28;20502;-85
2021/10/12 09:28:43;;;;;;;8.95;3.90;;;;;;;;;;5044277;28;20096;-84
2021/10/12 09:31:12;;;;;;;10.82;4.00;;;;;;;;;;5044318;28;20427;-87
2021/10/12 09:33:51;;;;;;;11.43;3.75;;;;;;;;;;5060988;28;20025;-85
2021/10/12 09:36:34;;;;;;;11.00;4.50;;;;;;;;;;5052125;28;20025;-85
2021/10/12 09:39:00;;;;;;;13.10;3.83;;;;;;;;;;5061133;28;20036;-83
2021/10/12 09:41:27;;;;;;;7.82;2.95;;;;;;;;;;5058914;28;20364;-86
2021/10/12 09:44:09;;;;;;;11.70;3.38;;;;;;;;;;5040353;28;20068;-84
2021/10/12 09:46:38;;;;;;;7.78;3.13;;;;;;;;;;5036429;28;20025;-84
2021/10/12 09:49:24;;;;;;;10.30;4.22;;;;;;;;;;5059090;28;20036;-85
2021/10/12 09:52:08;;;;;;;7.88;3.53;;;13.50;99.90;;;;;;5056009;28;20057;-84
2021/10/12 09:54:47;;;;;;;12.32;3.50;;;13.60;99.70;;;;;;5061358;28;20025;-82
2021/10/12 09:57:13;;;;;;;9.10;3.00;;;;;;;;;;5039091;28;20108;-82
2021/10/12 09:59:40;;;;;;;8.48;2.75;;;;;;;;;;5035967;28;20033;-86
2021/10/12 10:02:17;;;;;;;38.20;5.15;;;;;;;;;;5040406;28;20033;-84
2021/10/12 10:04:49;;;;;;;15.32;4.38;;;;;;;;;;5056353;28;20097;-84
2021/10/12 10:07:27;;;;;;;13.30;3.95;;;;;;;;;;5069003;28;20040;-83
2021/10/12 10:09:56;;;;;;;8.80;3.55;;;;;;;;;;5041401;28;20029;-85
2021/10/12 10:12:22;;;;;;;9.90;3.85;;;;;;;;;;5056188;28;20585;-83
2021/10/12 10:14:48;;;;;;;9.73;3.58;;;;;;;;;;5042690;28;20027;-84
2021/10/12 10:17:15;;;;;;;11.40;3.80;;;;;;;;;;5054574;28;20029;-87
2021/10/12 10:19:42;;;;;;;10.48;3.10;;;;;;;;;;5054231;28;20513;-84
2021/10/12 10:22:08;;;;;;;6.32;3.08;;;;;;;;;;5053123;28;20037;-86
2021/10/12 10:24:34;;;;;;;11.13;3.90;;;;;;;;;;5036454;28;20025;-83
2021/10/12 10:27:01;;;;;;;9.02;2.78;;;;;;;;;;5053031;28;20029;-82
2021/10/12 10:29:37;;;;;;;11.18;3.00;;;;;;;;;;5051568;28;20040;-86
2021/10/12 10:32:22;;;;;;;8.75;3.47;;;;;;;;;;5035764;28;20026;-85
2021/10/12 10:35:01;;;;;;;10.90;3.33;;;;;;;;;;5048283;28;20021;-83
2021/10/12 10:37:29;;;;;;;8.93;3.00;;;;;;;;;;5030183;28;20033;-86
2021/10/12 10:39:55;;;;;;;10.68;2.72;;;;;;;;;;5055436;28;20033;-84
2021/10/12 10:42:27;;;;;;;9.05;2.53;;;;;;;;;;5043363;28;20029;-87
2021/10/12 10:44:54;;;;;;;13.52;2.60;;;;;;;;;;5057375;28;20028;-85
2021/10/12 10:47:40;;;;;;;7.47;2.58;;;;;;;;;;5040941;28;20483;-86
2021/10/12 10:50:13;;;;;;;7.10;2.70;;;;;;;;;;5024890;28;20045;-85
2021/10/12 10:52:43;;;;;;;5.65;2.42;;;;;;;;;;5054774;28;20045;-84
2021/10/12 10:55:10;;;;;;;9.02;2.70;;;;;;;;;;5038328;28;20014;-85
2021/10/12 10:57:37;;;;;;;11.80;3.00;;;;;;;;;;5055120;28;20251;-84
2021/10/12 11:00:12;;;;;;;15.45;2.92;;;;;;;;;;5044588;28;20036;-84
2021/10/12 11:02:38;;;;;;;6.45;2.70;;;;;;;;;;5056227;28;20025;-84
2021/10/12 11:05:05;;;;;;;5.80;2.20;;;;;;;;;;5040157;28;20036;-83
2021/10/12 11:07:31;;;;;;;372.40;37.95;;;;;;;;;;5047468;28;20059;-83
2021/10/12 11:09:58;;;;;;;9.63;2.70;;;;;;;;;;5057336;28;20033;-85
2021/10/12 11:12:25;;;;;;;8.63;2.90;;;;;;;;;;5038516;28;20021;-85
2021/10/12 11:14:52;;;;;;;11.10;2.72;;;14.20;98.10;;;;;;5038308;28;20052;-84
2021/10/12 11:17:18;;;;;;;9.07;3.33;;;;;;;;;;5040762;28;20021;-85
2021/10/12 11:19:53;;;;;;;22.13;3.67;;;;;;;;;;5055808;28;20025;-83
2021/10/12 11:22:20;;;;;;;10.02;2.90;;;14.00;98.20;;;;;;5039897;28;20052;-87
2021/10/12 11:24:46;;;;;;;7.70;2.78;;;;;;;;;;5040071;28;20043;-83
2021/10/12 11:27:12;;;;;;;6.93;2.55;;;;;;;;;;5043423;28;20040;-82
2021/10/12 11:29:38;;;;;;;17.75;3.42;;;;;;;;;;5050021;28;20041;-83
2021/10/12 11:32:05;;;;;;;5.47;2.28;;;;;;;;;;5058102;28;20052;-83
2021/10/12 11:34:33;;;;;;;7.40;3.20;;;;;;;;;;5055910;28;20421;-86
2021/10/12 11:37:09;;;;;;;6.57;2.67;;;;;;;;;;5054178;28;20071;-85
2021/10/12 11:39:35;;;;;;;10.65;4.20;;;;;;;;;;5060489;28;20017;-86
2021/10/12 11:42:01;;;;;;;8.35;2.80;;;;;;;;;;5044178;28;20040;-85
2021/10/12 11:44:27;;;;;;;8.15;3.17;;;;;;;;;;5062146;28;20025;-85
2021/10/12 11:46:59;;;;;;;9.10;2.88;;;;;;;;;;5058449;28;20025;-83
2021/10/12 11:49:25;;;;;;;9.25;2.95;;;;;;;;;;5039347;28;20033;-82
2021/10/12 11:52:17;;;;;;;11.13;3.00;;;;;;;;;;4752079;27;11508053;-84
2021/10/12 11:54:43;;;;;;;8.27;2.60;;;;;;;;;;5111846;28;20023;-85
2021/10/12 11:57:21;;;;;;;14.52;2.80;;;;;;;;;;5121135;28;20027;-84
2021/10/12 11:59:48;;;;;;;6.85;2.80;;;;;;;;;;5116849;28;20036;-84
2021/10/12 12:02:14;;;;;;;16.65;3.70;;;;;;;;;;5121138;28;20019;-85
2021/10/12 12:04:41;;;;;;;7.75;3.38;;;;;;;;;;5113917;28;20055;-86
2021/10/12 12:07:08;;;;;;;7.90;2.58;;;13.90;98.10;;;;;;5128642;28;20077;-84
2021/10/12 12:09:36;;;;;;;8.95;2.22;;;;;;;;;;5116166;28;20213;-83
2021/10/12 12:12:05;;;;;;;8.13;2.97;;;13.90;98.50;;;;;;5106632;28;20526;-84
2021/10/12 12:14:31;;;;;;;9.10;2.90;;;;;;;;;;5108113;28;20059;-85
2021/10/12 12:17:07;;;;;;;6.88;3.13;;;;;;;;;;5111341;28;20134;-87
2021/10/12 12:19:49;;;;;;;10.77;3.05;;;13.60;99.40;;;;;;5110747;28;20023;-84
2021/10/12 12:22:17;;;;;;;5.80;2.42;;;13.50;99.90;;;;;;5112682;28;20094;-86
2021/10/12 12:24:53;;;;;;;10.15;3.58;;;;;;;;;;5116252;28;20027;-86
2021/10/12 12:27:20;;;;;;;16.67;2.92;;;;;;;;;;5109813;28;20476;-86
2021/10/12 12:29:59;;;;;;;7.95;3.35;;;13.30;99.90;;;;;;5111933;28;20026;-85
2021/10/12 12:32:25;;;;;;;13.55;3.45;;;;;;;;;;5124982;28;20019;-86
2021/10/12 12:35:04;;;;;;;33.22;5.20;;;;;;;;;;5114077;28;20073;-84
2021/10/12 12:37:31;;;;;;;12.17;3.83;;;;;;;;;;5109999;28;20030;-84
2021/10/12 12:39:58;;;;;;;13.00;3.58;;;;;;;;;;5109709;28;20990;-86
2021/10/12 12:42:34;;;;;;;7.90;3.88;;;;;;;;;;5108204;28;20028;-83
2021/10/12 12:45:10;;;;;;;8.40;4.30;;;;;;;;;;5115059;28;20035;-86
2021/10/12 12:47:37;;;;;;;19.80;6.63;;;;;;;;;;5111209;28;20024;-86
2021/10/12 12:50:07;;;;;;;11.57;4.60;;;;;;;;;;5108400;28;20034;-86
2021/10/12 12:52:34;;;;;;;9.95;4.05;;;;;;;;;;5115915;28;20032;-87
2021/10/12 12:55:00;;;;;;;11.27;4.00;;;;;;;;;;5114552;28;20038;-87
2021/10/12 12:57:26;;;;;;;6.88;3.90;;;;;;;;;;5122728;28;20041;-86
2021/10/12 13:00:00;;;;;;;10.27;4.00;;;;;;;;;;5121193;28;20541;-86
2021/10/12 13:02:27;;;;;;;7.63;3.13;;;;;;;;;;5099512;28;20032;-84
2021/10/12 13:04:53;;;;;;;11.07;4.32;;;;;;;;;;5106273;28;20028;-86
2021/10/12 13:07:19;;;;;;;9.88;4.05;;;;;;;;;;5097377;28;20092;-87
2021/10/12 13:09:47;;;;;;;10.65;4.13;;;;;;;;;;5095740;28;20042;-84
2021/10/12 13:12:16;;;;;;;10.73;3.97;;;;;;;;;;5098661;28;20399;-83
2021/10/12 13:14:47;;;;;;;14.70;4.95;;;;;;;;;;5104834;28;20119;-87
2021/10/12 13:17:14;;;;;;;10.95;4.25;;;;;;;;;;5125258;28;20062;-86
2021/10/12 13:19:40;;;;;;;9.70;3.88;;;;;;;;;;5102016;28;20057;-83
2021/10/12 13:22:06;;;;;;;12.23;5.32;;;;;;;;;;5103108;28;20035;-85
2021/10/12 13:24:32;;;;;;;11.75;4.28;;;;;;;;;;5093555;28;20468;-86
2021/10/12 13:26:58;;;;;;;9.77;3.67;;;;;;;;;;5098657;28;20027;-81
2021/10/12 13:29:24;;;;;;;7.95;4.00;;;;;;;;;;5099120;28;20034;-87
2021/10/12 13:31:50;;;;;;;10.48;4.05;;;;;;;;;;5109340;28;20036;-83
2021/10/12 13:34:16;;;;;;;7.22;3.70;;;;;;;;;;5104527;28;20108;-85
2021/10/12 13:36:42;;;;;;;11.77;4.00;;;;;;;;;;5099316;28;20031;-85
2021/10/12 13:39:08;;;;;;;6.88;3.88;;;;;;;;;;5104453;28;20038;-86
2021/10/12 13:41:34;;;;;;;8.75;3.88;;;;;;;;;;5099513;28;20050;-87
2021/10/12 13:44:01;;;;;;;24.15;11.82;;;;;;;;;;5103384;22;20037;-82
2021/10/12 13:46:27;;;;;;;7.93;4.65;;;;;;;;;;5076762;28;20096;-83
2021/10/12 13:48:53;;;;;;;12.20;4.32;;;;;;;;;;5093754;28;20021;-83
2021/10/12 13:51:19;;;;;;;9.50;4.50;;;;;;;;;;5076383;28;20036;-81
2021/10/12 13:53:45;;;;;;;11.50;4.40;;;;;;;;;;5086051;28;20037;-83
2021/10/12 13:56:11;;;;;;;9.40;4.63;;;;;;;;;;5058964;28;20035;-83
2021/10/12 13:58:37;;;;;;;8.45;4.13;;;;;;;;;;5061864;28;20025;-83
2021/10/12 14:01:05;;;;;;;10.20;4.32;;;;;;;;;;5063527;28;20041;-82
2021/10/12 14:03:34;;;;;;;10.25;5.70;;;;;;;;;;5071021;28;20025;-85
2021/10/12 14:06:00;;;;;;;10.60;4.65;;;;;;;;;;5061254;28;20029;-83
2021/10/12 14:08:26;;;;;;;10.07;4.72;;;;;;;;;;5059825;28;20454;-81
2021/10/12 14:10:52;;;;;;;9.95;4.22;;;;;;;;;;5067712;28;20033;-84
2021/10/12 14:13:18;;;;;;;8.02;4.57;;;;;;;;;;5076605;28;20155;-85
2021/10/12 14:15:43;;;;;;;12.48;5.53;;;;;;;;;;5059565;28;20029;-85
2021/10/12 14:18:09;;;;;;;7.13;4.53;;;;;;;;;;5058897;28;20029;-85
2021/10/12 14:20:35;;;;;;;8.38;4.68;;;;;;;;;;5058301;28;20029;-84
2021/10/12 14:23:01;;;;;;;9.73;4.78;;;;;;;;;;5073912;28;20025;-87
2021/10/12 14:25:27;;;;;;;9.68;5.07;;;;;;;;;;5062267;28;20029;-81
2021/10/12 14:27:53;;;;;;;13.23;5.20;;;;;;;;;;5075864;28;20491;-86